Kmarin Singapore — HOBF — position and weather

sailwx.info

Track history (hours):
 
Tides and Currents Weather Stations Pressure Air Temp Water Temp Dewpoint Dewpoint Depression Visibility Wind Speed Wind Dir Waves Ship Positions

Kmarin Singapore

Last reported at 2018-May-14 01:31 UTC. Time now 2018-May-26 23:21 UTC.
Position N 23°36' E 119°55'.
Warning: this ship's position is 12 days out of date.

Length 200 m; draft 12.8 m.

Type: Cargo ship. MMSI: 374794000.

Date/timePositionNaut miles runAvg speedWind from/ knotsBaromVisibWave heightAir tempDewpointWater temp
2018-May-14 01:31N 23°36' E 119°55'017.8
2018-May-14 01:30N 23°36' E 119°55'8014.6
2018-May-13 20:01N 22°16' E 119°41'013.0
2018-May-13 20:00N 22°16' E 119°41'814.0
2018-May-13 19:28N 22°10' E 119°37'613.9
2018-May-13 19:01N 22°04' E 119°33'713.8
2018-May-13 18:29N 21°58' E 119°29'713.4
2018-May-13 17:58N 21°52' E 119°26'813.2
2018-May-13 17:23N 21°45' E 119°21'713.7
2018-May-13 16:53N 21°39' E 119°18'513.8
2018-May-13 16:30N 21°34' E 119°16'  
2018-May-08 23:17N 01°27' E 104°32'413.2
2018-May-08 22:58N 01°25' E 104°28'813.8
2018-May-08 22:23N 01°19' E 104°22'513.0
2018-May-08 21:58N 01°17' E 104°18'613.2
2018-May-08 21:30N 01°16' E 104°12'612.0
2018-May-08 20:59N 01°16' E 104°05'4 8.7
2018-May-08 20:30N 01°17' E 104°01'1 1.0
2018-May-08 19:54N 01°17' E 104°01'0 0.0
2018-May-08 19:24N 01°17' E 104°01'0 0.0
2018-May-08 18:58N 01°17' E 104°01'0 0.0
2018-May-08 18:24N 01°17' E 104°01'0 0.0
2018-May-08 17:57N 01°17' E 104°01'0 0.0
2018-May-08 17:30N 01°17' E 104°01'0 0.0
2018-May-08 16:54N 01°17' E 104°01'0 0.0
2018-May-08 16:27N 01°17' E 104°01'0 0.0
2018-May-08 15:45N 01°17' E 104°01'0 0.0
2018-May-08 15:15N 01°17' E 104°01'0 0.0
2018-May-08 14:57N 01°17' E 104°01'0 0.0
2018-May-08 14:30N 01°17' E 104°01'0 0.0
2018-May-08 13:45N 01°17' E 104°01'0 0.0
2018-May-08 13:24N 01°17' E 104°01'0 0.0
2018-May-08 12:57N 01°17' E 104°01'0 0.0
2018-May-08 12:30N 01°17' E 104°01'0 0.0
2018-May-08 11:57N 01°17' E 104°01'0 0.0
2018-May-08 11:28N 01°17' E 104°01'0 0.0
2018-May-08 10:48N 01°17' E 104°01'0 0.0
2018-May-08 10:24N 01°17' E 104°01'0 0.0
2018-May-08 09:57N 01°17' E 104°01'0 0.0
2018-May-08 09:24N 01°17' E 104°01'1 2.1
2018-May-08 08:59N 01°17' E 104°00'3 5.5
2018-May-08 08:30N 01°16' E 103°58'2 3.8
2018-May-08 07:59N 01°14' E 103°56'3 7.1
2018-May-08 07:30N 01°12' E 103°54'5 9.4
2018-May-08 07:00N 01°10' E 103°49'5 9.8
2018-May-08 06:30N 01°07' E 103°45'5 9.8
2018-May-08 05:59N 01°05' E 103°41'510.8
2018-May-08 05:30N 01°05' E 103°36'610.8
2018-May-08 04:59N 01°07' E 103°31'612.1
2018-May-08 04:29N 01°10' E 103°26'611.1
2018-May-08 03:57N 01°14' E 103°21'  
Track history (hours):
 
Tides and Currents Weather Stations Pressure Air Temp Water Temp Dewpoint Dewpoint Depression Visibility Wind Speed Wind Dir Waves Ship Positions

Kmarin Singapore

Last reported at 2018-May-14 01:31 UTC. Time now 2018-May-26 23:21 UTC.
Position N 23°36' E 119°55'.
Warning: this ship's position is 12 days out of date.

Length 200 m; draft 12.8 m.

Type: Cargo ship. MMSI: 374794000.

Date/timePositionNaut miles runAvg speedWind from/ knotsBaromVisibWave heightAir tempDewpointWater temp
2018-May-14 01:31N 23°36' E 119°55'017.8
2018-May-14 01:30N 23°36' E 119°55'8014.6
2018-May-13 20:01N 22°16' E 119°41'013.0
2018-May-13 20:00N 22°16' E 119°41'814.0
2018-May-13 19:28N 22°10' E 119°37'613.9
2018-May-13 19:01N 22°04' E 119°33'713.8
2018-May-13 18:29N 21°58' E 119°29'713.4
2018-May-13 17:58N 21°52' E 119°26'813.2
2018-May-13 17:23N 21°45' E 119°21'713.7
2018-May-13 16:53N 21°39' E 119°18'513.8
2018-May-13 16:30N 21°34' E 119°16'  
2018-May-08 23:17N 01°27' E 104°32'413.2
2018-May-08 22:58N 01°25' E 104°28'813.8
2018-May-08 22:23N 01°19' E 104°22'513.0
2018-May-08 21:58N 01°17' E 104°18'613.2
2018-May-08 21:30N 01°16' E 104°12'612.0
2018-May-08 20:59N 01°16' E 104°05'4 8.7
2018-May-08 20:30N 01°17' E 104°01'1 1.0
2018-May-08 19:54N 01°17' E 104°01'0 0.0
2018-May-08 19:24N 01°17' E 104°01'0 0.0
2018-May-08 18:58N 01°17' E 104°01'0 0.0
2018-May-08 18:24N 01°17' E 104°01'0 0.0
2018-May-08 17:57N 01°17' E 104°01'0 0.0
2018-May-08 17:30N 01°17' E 104°01'0 0.0
2018-May-08 16:54N 01°17' E 104°01'0 0.0
2018-May-08 16:27N 01°17' E 104°01'0 0.0
2018-May-08 15:45N 01°17' E 104°01'0 0.0
2018-May-08 15:15N 01°17' E 104°01'0 0.0
2018-May-08 14:57N 01°17' E 104°01'0 0.0
2018-May-08 14:30N 01°17' E 104°01'0 0.0
2018-May-08 13:45N 01°17' E 104°01'0 0.0
2018-May-08 13:24N 01°17' E 104°01'0 0.0
2018-May-08 12:57N 01°17' E 104°01'0 0.0
2018-May-08 12:30N 01°17' E 104°01'0 0.0
2018-May-08 11:57N 01°17' E 104°01'0 0.0
2018-May-08 11:28N 01°17' E 104°01'0 0.0
2018-May-08 10:48N 01°17' E 104°01'0 0.0
2018-May-08 10:24N 01°17' E 104°01'0 0.0
2018-May-08 09:57N 01°17' E 104°01'0 0.0
2018-May-08 09:24N 01°17' E 104°01'1 2.1
2018-May-08 08:59N 01°17' E 104°00'3 5.5
2018-May-08 08:30N 01°16' E 103°58'2 3.8
2018-May-08 07:59N 01°14' E 103°56'3 7.1
2018-May-08 07:30N 01°12' E 103°54'5 9.4
2018-May-08 07:00N 01°10' E 103°49'5 9.8
2018-May-08 06:30N 01°07' E 103°45'5 9.8
2018-May-08 05:59N 01°05' E 103°41'510.8
2018-May-08 05:30N 01°05' E 103°36'610.8
2018-May-08 04:59N 01°07' E 103°31'612.1
2018-May-08 04:29N 01°10' E 103°26'611.1
2018-May-08 03:57N 01°14' E 103°21'  

Dump ship's entire track history